createdAt,value
2023-02-28T00:00:23.850Z, 42.67
2023-02-28T00:01:23.861Z, 42.60
2023-02-28T00:02:23.999Z, 42.55
2023-02-28T00:03:23.926Z, 42.49
2023-02-28T00:04:23.931Z, 42.51
2023-02-28T00:05:23.960Z, 42.50
2023-02-28T00:06:23.936Z, 42.50
2023-02-28T00:07:23.936Z, 42.45
2023-02-28T00:08:23.989Z, 42.42
2023-02-28T00:09:23.981Z, 42.39
2023-02-28T00:10:23.991Z, 42.31
2023-02-28T00:11:23.969Z, 42.31
2023-02-28T00:12:23.981Z, 42.28
2023-02-28T00:13:23.970Z, 42.22
2023-02-28T00:14:24.066Z, 42.17
2023-02-28T00:15:24.054Z, 42.12
2023-02-28T00:16:24.114Z, 42.09
2023-02-28T00:17:24.061Z, 42.02
2023-02-28T00:18:24.068Z, 42.06
2023-02-28T00:19:24.068Z, 42.01
2023-02-28T00:20:24.081Z, 41.99
2023-02-28T00:21:24.055Z, 41.98
2023-02-28T00:22:24.086Z, 41.95
2023-02-28T00:23:24.073Z, 41.95
2023-02-28T00:24:24.080Z, 41.93
2023-02-28T00:25:24.115Z, 41.95
2023-02-28T00:26:24.112Z, 41.92
2023-02-28T00:27:24.157Z, 41.89
2023-02-28T00:28:24.144Z, 41.84
2023-02-28T00:29:24.155Z, 41.88
2023-02-28T00:30:24.391Z, 41.78
2023-02-28T00:31:24.245Z, 41.80
2023-02-28T00:32:24.223Z, 41.76
2023-02-28T00:33:24.256Z, 41.75
2023-02-28T00:34:24.257Z, 41.71
2023-02-28T00:35:24.417Z, 41.70
2023-02-28T00:36:24.265Z, 41.75
2023-02-28T00:37:24.401Z, 41.69
2023-02-28T00:38:24.401Z, 41.69
2023-02-28T00:39:24.313Z, 41.66
2023-02-28T00:40:24.302Z, 41.62
2023-02-28T00:41:24.326Z, 41.53
2023-02-28T00:42:24.330Z, 41.51
2023-02-28T00:43:24.340Z, 41.49
2023-02-28T00:44:24.338Z, 41.55
2023-02-28T00:45:24.357Z, 41.48
2023-02-28T00:46:24.473Z, 41.38
2023-02-28T00:47:24.344Z, 41.43
2023-02-28T00:48:24.356Z, 41.51
2023-02-28T00:49:24.358Z, 41.44
2023-02-28T00:50:24.348Z, 41.38
2023-02-28T00:51:24.365Z, 41.38
2023-02-28T00:52:24.388Z, 41.36
2023-02-28T00:53:24.366Z, 41.34
2023-02-28T00:54:24.403Z, 41.29
2023-02-28T00:55:24.425Z, 41.25
2023-02-28T00:56:24.403Z, 41.24
2023-02-28T00:57:24.420Z, 41.27
2023-02-28T00:58:24.427Z, 41.24
2023-02-28T00:59:24.469Z, 41.23
2023-02-28T01:00:24.443Z, 41.21
2023-02-28T01:01:24.495Z, 41.21
2023-02-28T01:02:24.466Z, 41.17
2023-02-28T01:03:24.497Z, 41.15
2023-02-28T01:04:24.537Z, 41.14
2023-02-28T01:05:24.504Z, 41.13
2023-02-28T01:06:24.514Z, 41.11
2023-02-28T01:07:24.590Z, 41.06
2023-02-28T01:08:24.610Z, 41.09
2023-02-28T01:09:24.635Z, 41.06
2023-02-28T01:10:24.659Z, 41.00
2023-02-28T01:11:24.593Z, 41.00
2023-02-28T01:12:24.583Z, 40.95
2023-02-28T01:13:24.656Z, 40.94
2023-02-28T01:14:24.640Z, 40.95
2023-02-28T01:15:24.642Z, 40.91
2023-02-28T01:16:24.682Z, 40.83
2023-02-28T01:17:24.700Z, 40.83
2023-02-28T01:18:24.685Z, 40.75
2023-02-28T01:19:24.679Z, 40.69
2023-02-28T01:20:24.668Z, 40.68
2023-02-28T01:21:24.670Z, 40.64
2023-02-28T01:22:24.730Z, 40.68
2023-02-28T01:23:24.742Z, 40.64
2023-02-28T01:24:24.763Z, 40.55
2023-02-28T01:25:25.263Z, 40.59
2023-02-28T01:26:24.760Z, 40.58
2023-02-28T01:27:24.780Z, 40.55
2023-02-28T01:28:24.749Z, 40.49
2023-02-28T01:29:24.749Z, 40.46
2023-02-28T01:30:24.771Z, 40.43
2023-02-28T01:31:24.835Z, 40.40
2023-02-28T01:32:24.867Z, 40.46
2023-02-28T01:33:24.801Z, 40.47
2023-02-28T01:34:24.795Z, 40.52
2023-02-28T01:35:24.847Z, 40.54
2023-02-28T01:36:24.835Z, 40.50
2023-02-28T01:37:24.827Z, 40.43
2023-02-28T01:38:24.865Z, 40.41
2023-02-28T01:39:24.853Z, 40.41
2023-02-28T01:40:24.889Z, 40.40
2023-02-28T01:41:24.904Z, 40.39
2023-02-28T01:42:24.960Z, 40.44
2023-02-28T01:43:24.955Z, 40.36
2023-02-28T01:44:24.958Z, 40.33
2023-02-28T01:45:24.959Z, 40.27
2023-02-28T01:46:24.986Z, 40.31
2023-02-28T01:47:24.928Z, 40.24
2023-02-28T01:48:25.027Z, 40.19
2023-02-28T01:49:24.984Z, 40.15
2023-02-28T01:50:24.986Z, 40.19
2023-02-28T01:51:24.989Z, 40.17
2023-02-28T01:52:25.040Z, 40.12
2023-02-28T01:53:25.025Z, 40.09
2023-02-28T01:54:25.024Z, 40.09
2023-02-28T01:55:25.070Z, 40.13
2023-02-28T01:56:25.039Z, 40.09
2023-02-28T01:57:25.049Z, 40.10
2023-02-28T01:58:25.044Z, 40.02
2023-02-28T01:59:25.049Z, 40.05
2023-02-28T02:00:25.069Z, 40.05
2023-02-28T02:01:25.126Z, 40.00
2023-02-28T02:02:25.129Z, 39.95
2023-02-28T02:03:25.075Z, 40.00
2023-02-28T02:04:25.071Z, 39.96
2023-02-28T02:05:25.132Z, 39.93
2023-02-28T02:06:25.107Z, 39.93
2023-02-28T02:07:25.100Z, 39.96
2023-02-28T02:08:25.122Z, 39.82
2023-02-28T02:09:25.114Z, 39.92
2023-02-28T02:10:25.137Z, 39.86
2023-02-28T02:11:25.229Z, 39.86
2023-02-28T02:12:25.223Z, 39.78
2023-02-28T02:13:25.181Z, 39.73
2023-02-28T02:14:25.220Z, 39.72
2023-02-28T02:15:25.234Z, 39.74
2023-02-28T02:16:25.233Z, 39.70
2023-02-28T02:17:25.237Z, 39.71
2023-02-28T02:18:25.210Z, 39.65
2023-02-28T02:19:25.244Z, 39.62
2023-02-28T02:20:25.239Z, 39.62
2023-02-28T02:21:25.288Z, 39.62
2023-02-28T02:22:25.342Z, 39.60
2023-02-28T02:23:25.330Z, 39.59
2023-02-28T02:24:25.334Z, 39.51
2023-02-28T02:25:25.327Z, 39.49
2023-02-28T02:26:25.313Z, 39.46
2023-02-28T02:27:25.329Z, 39.47
2023-02-28T02:28:25.336Z, 39.48
2023-02-28T02:29:25.334Z, 39.48
2023-02-28T02:30:25.369Z, 39.46
2023-02-28T02:31:25.481Z, 39.50
2023-02-28T02:32:25.425Z, 39.49
2023-02-28T02:33:25.377Z, 39.55
2023-02-28T02:34:25.395Z, 39.49
2023-02-28T02:35:25.451Z, 39.42
2023-02-28T02:36:25.419Z, 39.40
2023-02-28T02:37:25.398Z, 39.43
2023-02-28T02:38:25.443Z, 39.41
2023-02-28T02:39:25.464Z, 39.39
2023-02-28T02:40:25.494Z, 39.36
2023-02-28T02:41:25.496Z, 39.30
2023-02-28T02:42:25.453Z, 39.28
2023-02-28T02:43:25.513Z, 39.23
2023-02-28T02:44:25.498Z, 39.21
2023-02-28T02:45:25.487Z, 39.24
2023-02-28T02:46:25.502Z, 39.22
2023-02-28T02:47:25.485Z, 39.23
2023-02-28T02:48:25.497Z, 39.21
2023-02-28T02:49:25.484Z, 39.17
2023-02-28T02:50:25.507Z, 39.14
2023-02-28T02:51:25.518Z, 39.15
2023-02-28T02:52:25.553Z, 39.16
2023-02-28T02:53:25.550Z, 39.18
2023-02-28T02:54:25.603Z, 39.08
2023-02-28T02:55:25.586Z, 39.04
2023-02-28T02:56:25.663Z, 39.03
2023-02-28T02:57:25.684Z, 39.06
2023-02-28T02:58:25.646Z, 39.06
2023-02-28T02:59:25.635Z, 39.01
2023-02-28T03:00:25.671Z, 39.00
2023-02-28T03:01:25.677Z, 38.98
2023-02-28T03:02:25.687Z, 38.99
2023-02-28T03:03:25.758Z, 38.97
2023-02-28T03:04:25.661Z, 38.94
2023-02-28T03:05:25.705Z, 38.89
2023-02-28T03:06:25.689Z, 38.92
2023-02-28T03:07:25.726Z, 38.87
2023-02-28T03:08:25.741Z, 38.90
2023-02-28T03:09:25.721Z, 38.88
2023-02-28T03:10:25.739Z, 38.91
2023-02-28T03:11:25.771Z, 38.84
2023-02-28T03:12:25.765Z, 38.80
2023-02-28T03:13:25.745Z, 38.78
2023-02-28T03:14:25.807Z, 38.73
2023-02-28T03:15:25.774Z, 38.70
2023-02-28T03:16:25.919Z, 38.74
2023-02-28T03:17:25.809Z, 38.72
2023-02-28T03:18:25.803Z, 38.72
2023-02-28T03:19:25.832Z, 38.72
2023-02-28T03:20:25.817Z, 38.69
2023-02-28T03:21:25.810Z, 38.62
2023-02-28T03:22:25.895Z, 38.60
2023-02-28T03:23:25.861Z, 38.61
2023-02-28T03:24:25.866Z, 38.66
2023-02-28T03:25:25.880Z, 38.63
2023-02-28T03:26:25.867Z, 38.59
2023-02-28T03:27:25.869Z, 38.61
2023-02-28T03:28:25.934Z, 38.59
2023-02-28T03:29:25.902Z, 38.57
2023-02-28T03:30:25.997Z, 38.55
2023-02-28T03:31:25.984Z, 38.56
2023-02-28T03:32:26.028Z, 38.48
2023-02-28T03:33:25.945Z, 38.46
2023-02-28T03:34:25.948Z, 38.46
2023-02-28T03:35:26.043Z, 38.47
2023-02-28T03:36:26.041Z, 38.41
2023-02-28T03:37:26.157Z, 38.38
2023-02-28T03:38:26.067Z, 38.38
2023-02-28T03:39:26.054Z, 38.41
2023-02-28T03:40:26.068Z, 38.35
2023-02-28T03:41:26.040Z, 38.33
2023-02-28T03:42:26.102Z, 38.34
2023-02-28T03:43:26.072Z, 38.35
2023-02-28T03:44:26.060Z, 38.32
2023-02-28T03:45:26.091Z, 38.25
2023-02-28T03:46:26.087Z, 38.23
2023-02-28T03:47:26.108Z, 38.29
2023-02-28T03:48:26.106Z, 38.31
2023-02-28T03:49:26.095Z, 38.29
2023-02-28T03:50:26.109Z, 38.28
2023-02-28T03:51:26.437Z, 38.26
2023-02-28T03:52:26.398Z, 38.24
2023-02-28T03:53:26.194Z, 38.17
2023-02-28T03:54:26.393Z, 38.15
2023-02-28T03:55:26.413Z, 38.11
2023-02-28T03:56:26.389Z, 38.10
2023-02-28T03:57:26.395Z, 38.05
2023-02-28T03:58:26.384Z, 38.09
2023-02-28T03:59:26.385Z, 38.10
2023-02-28T04:00:27.651Z, 38.05
2023-02-28T04:01:26.482Z, 38.09
2023-02-28T04:02:26.394Z, 38.01
2023-02-28T04:03:26.386Z, 37.98
2023-02-28T04:04:26.356Z, 37.95
2023-02-28T04:05:26.387Z, 37.91
2023-02-28T04:06:26.301Z, 37.88
2023-02-28T04:07:26.291Z, 37.88
2023-02-28T04:08:26.339Z, 37.91
2023-02-28T04:09:26.390Z, 37.89
2023-02-28T04:10:26.418Z, 37.90
2023-02-28T04:11:26.712Z, 37.92
2023-02-28T04:12:26.395Z, 37.86
2023-02-28T04:13:26.429Z, 37.84
2023-02-28T04:14:26.438Z, 37.86
2023-02-28T04:15:26.388Z, 37.84
2023-02-28T04:16:34.993Z, 37.82
2023-02-28T04:17:26.408Z, 37.88
2023-02-28T04:18:26.486Z, 37.88
2023-02-28T04:19:26.436Z, 37.82
2023-02-28T04:20:26.460Z, 37.76
2023-02-28T04:21:27.887Z, 37.74
2023-02-28T04:22:26.469Z, 37.74
2023-02-28T04:23:26.461Z, 37.79
2023-02-28T04:24:26.492Z, 37.77
2023-02-28T04:25:26.486Z, 37.71
2023-02-28T04:26:26.467Z, 37.67
2023-02-28T04:27:26.519Z, 37.70
2023-02-28T04:28:26.575Z, 37.63
2023-02-28T04:29:26.537Z, 37.64
2023-02-28T04:30:26.561Z, 37.65
2023-02-28T04:31:27.052Z, 38.34
2023-02-28T04:32:26.613Z, 39.65
2023-02-28T04:33:26.579Z, 39.93
2023-02-28T04:34:26.564Z, 39.94
2023-02-28T04:35:26.586Z, 39.89
2023-02-28T04:36:26.583Z, 39.83
2023-02-28T04:37:26.595Z, 39.72
2023-02-28T04:38:26.650Z, 39.46
2023-02-28T04:39:26.679Z, 39.07
2023-02-28T04:40:26.659Z, 38.79
2023-02-28T04:41:27.071Z, 38.53
2023-02-28T04:42:26.673Z, 40.36
2023-02-28T04:43:26.655Z, 45.70
2023-02-28T04:44:26.658Z, 51.07
2023-02-28T04:45:26.737Z, 53.76
2023-02-28T04:46:26.685Z, 51.68
2023-02-28T04:47:26.711Z, 48.77
2023-02-28T04:48:26.741Z, 46.12
2023-02-28T04:49:26.781Z, 43.62
2023-02-28T04:50:26.760Z, 41.15
2023-02-28T04:51:27.097Z, 39.82
2023-02-28T04:52:26.769Z, 39.09
2023-02-28T04:53:26.795Z, 38.62
2023-02-28T04:54:26.840Z, 38.27
2023-02-28T04:55:26.840Z, 38.00
2023-02-28T04:56:26.842Z, 37.76
2023-02-28T04:57:26.826Z, 40.51
2023-02-28T04:58:26.797Z, 46.46
2023-02-28T04:59:26.793Z, 50.99
2023-02-28T05:00:26.798Z, 53.41
2023-02-28T05:01:26.859Z, 55.33
2023-02-28T05:02:26.884Z, 56.11
2023-02-28T05:03:28.027Z, 56.45
2023-02-28T05:04:26.956Z, 57.69
2023-02-28T05:05:26.923Z, 59.85
2023-02-28T05:06:26.888Z, 66.81
2023-02-28T05:07:26.904Z, 56.28
2023-02-28T05:08:26.879Z, 53.14
2023-02-28T05:09:26.908Z, 54.08
2023-02-28T05:10:26.973Z, 55.53
2023-02-28T05:11:27.027Z, 58.22
2023-02-28T05:12:26.927Z, 62.02
2023-02-28T05:13:26.955Z, 64.63
2023-02-28T05:14:26.944Z, 53.48
2023-02-28T05:15:26.937Z, 53.83
2023-02-28T05:16:27.018Z, 55.18
2023-02-28T05:17:26.970Z, 57.47
2023-02-28T05:18:26.959Z, 60.88
2023-02-28T05:19:26.968Z, 67.28
2023-02-28T05:20:26.963Z, 55.41
2023-02-28T05:21:27.277Z, 54.25
2023-02-28T05:22:26.984Z, 55.21
2023-02-28T05:23:26.997Z, 55.73
2023-02-28T05:24:27.036Z, 56.65
2023-02-28T05:25:27.052Z, 55.86
2023-02-28T05:26:27.036Z, 53.30
2023-02-28T05:27:27.055Z, 51.15
2023-02-28T05:28:27.094Z, 49.51
2023-02-28T05:29:27.124Z, 47.63
2023-02-28T05:30:27.130Z, 46.16
2023-02-28T05:31:27.639Z, 45.11
2023-02-28T05:32:27.202Z, 44.36
2023-02-28T05:33:27.146Z, 43.71
2023-02-28T05:34:27.154Z, 44.63
2023-02-28T05:35:27.279Z, 49.27
2023-02-28T05:36:27.154Z, 54.58
2023-02-28T05:37:27.139Z, 56.22
2023-02-28T05:38:27.135Z, 55.09
2023-02-28T05:39:27.134Z, 53.31
2023-02-28T05:40:27.209Z, 51.53
2023-02-28T05:41:27.800Z, 49.90
2023-02-28T05:42:27.208Z, 48.39
2023-02-28T05:43:27.233Z, 46.86
2023-02-28T05:44:27.188Z, 44.96
2023-02-28T05:45:27.202Z, 43.28
2023-02-28T05:46:27.230Z, 42.48
2023-02-28T05:47:27.202Z, 41.76
2023-02-28T05:48:27.314Z, 44.89
2023-02-28T05:49:27.275Z, 51.49
2023-02-28T05:50:27.268Z, 56.64
2023-02-28T05:51:27.490Z, 59.05
2023-02-28T05:52:27.255Z, 57.94
2023-02-28T05:53:27.264Z, 56.65
2023-02-28T05:54:27.274Z, 55.60
2023-02-28T05:55:27.291Z, 54.75
2023-02-28T05:56:27.282Z, 53.84
2023-02-28T05:57:27.332Z, 52.94
2023-02-28T05:58:27.349Z, 51.95
2023-02-28T05:59:27.329Z, 51.00
2023-02-28T06:00:27.324Z, 50.13
2023-02-28T06:01:27.553Z, 49.33
2023-02-28T06:02:27.353Z, 48.53
2023-02-28T06:03:27.455Z, 47.70
2023-02-28T06:04:31.958Z, 46.88
2023-02-28T06:05:27.475Z, 45.99
2023-02-28T06:06:27.428Z, 45.98
2023-02-28T06:07:27.423Z, 51.88
2023-02-28T06:08:27.428Z, 57.31
2023-02-28T06:09:27.457Z, 58.43
2023-02-28T06:10:27.446Z, 56.73
2023-02-28T06:11:27.813Z, 55.44
2023-02-28T06:12:27.484Z, 54.46
2023-02-28T06:13:27.499Z, 53.68
2023-02-28T06:14:27.471Z, 52.83
2023-02-28T06:15:27.469Z, 52.05
2023-02-28T06:16:27.496Z, 51.58
2023-02-28T06:17:27.478Z, 51.18
2023-02-28T06:18:27.480Z, 50.96
2023-02-28T06:19:27.490Z, 50.66
2023-02-28T06:20:27.499Z, 50.31
2023-02-28T06:21:27.934Z, 50.05
2023-02-28T06:22:27.526Z, 49.76
2023-02-28T06:23:27.618Z, 49.54
2023-02-28T06:24:27.606Z, 49.30
2023-02-28T06:25:27.611Z, 49.09
2023-02-28T06:26:27.640Z, 48.85
2023-02-28T06:27:27.625Z, 48.66
2023-02-28T06:28:27.638Z, 48.43
2023-02-28T06:29:27.642Z, 48.27
2023-02-28T06:30:27.729Z, 48.06
2023-02-28T06:31:27.880Z, 47.88
2023-02-28T06:32:27.675Z, 47.77
2023-02-28T06:33:27.655Z, 47.62
2023-02-28T06:34:27.691Z, 47.44
2023-02-28T06:35:27.702Z, 47.27
2023-02-28T06:36:27.681Z, 47.12
2023-02-28T06:37:27.682Z, 46.96
2023-02-28T06:38:27.717Z, 46.78
2023-02-28T06:39:27.777Z, 46.62
2023-02-28T06:40:27.790Z, 46.47
2023-02-28T06:41:28.785Z, 46.35
2023-02-28T06:42:27.820Z, 46.18
2023-02-28T06:43:27.821Z, 46.07
2023-02-28T06:44:27.827Z, 45.96
2023-02-28T06:45:27.794Z, 45.81
2023-02-28T06:46:27.852Z, 45.67
2023-02-28T06:47:27.788Z, 45.47
2023-02-28T06:48:27.782Z, 45.38
2023-02-28T06:49:27.878Z, 45.31
2023-02-28T06:50:27.836Z, 45.22
2023-02-28T06:51:28.135Z, 45.13
2023-02-28T06:52:27.924Z, 44.96
2023-02-28T06:53:27.919Z, 44.84
2023-02-28T06:54:27.882Z, 44.75
2023-02-28T06:55:29.844Z, 44.63
2023-02-28T06:56:27.883Z, 44.55
2023-02-28T06:57:27.875Z, 44.47
2023-02-28T06:58:27.887Z, 44.36
2023-02-28T06:59:27.896Z, 44.28
2023-02-28T07:00:27.964Z, 44.15
2023-02-28T07:01:28.436Z, 44.03
2023-02-28T07:02:27.939Z, 43.95
2023-02-28T07:03:27.934Z, 43.89
2023-02-28T07:04:27.945Z, 43.79
2023-02-28T07:05:27.943Z, 43.71
2023-02-28T07:06:28.012Z, 43.59
2023-02-28T07:07:27.999Z, 43.54
2023-02-28T07:08:28.010Z, 43.41
2023-02-28T07:09:27.996Z, 43.35
2023-02-28T07:10:28.023Z, 43.35
2023-02-28T07:11:28.724Z, 43.22
2023-02-28T07:12:28.066Z, 43.14
2023-02-28T07:13:28.042Z, 43.05
2023-02-28T07:14:28.044Z, 42.98
2023-02-28T07:15:28.041Z, 42.97
2023-02-28T07:16:28.137Z, 42.94
2023-02-28T07:17:28.049Z, 42.88
2023-02-28T07:18:28.165Z, 42.77
2023-02-28T07:19:28.165Z, 42.69
2023-02-28T07:20:28.323Z, 42.66
2023-02-28T07:21:28.550Z, 42.57
2023-02-28T07:22:28.128Z, 42.56
2023-02-28T07:23:28.203Z, 42.55
2023-02-28T07:24:28.203Z, 42.47
2023-02-28T07:25:28.216Z, 42.37
2023-02-28T07:26:28.188Z, 42.29
2023-02-28T07:27:28.174Z, 42.25
2023-02-28T07:28:28.203Z, 42.18
2023-02-28T07:29:28.251Z, 42.17
2023-02-28T07:30:28.299Z, 42.09
2023-02-28T07:31:28.691Z, 42.03
2023-02-28T07:32:28.282Z, 41.97
2023-02-28T07:33:28.299Z, 41.95
2023-02-28T07:34:28.264Z, 41.95
2023-02-28T07:35:28.343Z, 41.89
2023-02-28T07:36:28.285Z, 41.77
2023-02-28T07:37:28.290Z, 41.72
2023-02-28T07:38:28.307Z, 41.67
2023-02-28T07:39:28.294Z, 41.61
2023-02-28T07:40:28.377Z, 41.62
2023-02-28T07:41:28.778Z, 41.60
2023-02-28T07:42:28.345Z, 41.56
2023-02-28T07:43:28.374Z, 41.52
2023-02-28T07:44:28.350Z, 41.46
2023-02-28T07:45:28.346Z, 41.42
2023-02-28T07:46:30.573Z, 41.34
2023-02-28T07:47:28.409Z, 41.30
2023-02-28T07:48:28.472Z, 41.25
2023-02-28T07:49:28.430Z, 41.22
2023-02-28T07:50:28.474Z, 41.13
2023-02-28T07:51:28.756Z, 41.11
2023-02-28T07:52:28.483Z, 41.09
2023-02-28T07:53:28.483Z, 41.05
2023-02-28T07:54:28.518Z, 40.95
2023-02-28T07:55:28.548Z, 40.98
2023-02-28T07:56:29.135Z, 40.95
2023-02-28T07:57:28.506Z, 40.91
2023-02-28T07:58:28.515Z, 40.82
2023-02-28T07:59:30.048Z, 40.80
2023-02-28T08:00:28.510Z, 40.78
2023-02-28T08:01:29.013Z, 40.74
2023-02-28T08:02:28.522Z, 40.67
2023-02-28T08:03:28.574Z, 40.61
2023-02-28T08:04:28.589Z, 40.55
2023-02-28T08:05:28.609Z, 40.55
2023-02-28T08:06:28.591Z, 40.60
2023-02-28T08:07:28.707Z, 40.49
2023-02-28T08:08:28.621Z, 40.47
2023-02-28T08:09:28.624Z, 40.51
2023-02-28T08:10:28.631Z, 40.44
2023-02-28T08:11:28.880Z, 40.38
2023-02-28T08:12:28.693Z, 40.35
2023-02-28T08:13:28.680Z, 40.34
2023-02-28T08:14:28.714Z, 40.32
2023-02-28T08:15:28.700Z, 40.31
2023-02-28T08:16:28.725Z, 40.28
2023-02-28T08:17:28.741Z, 40.31
2023-02-28T08:18:28.712Z, 40.29
2023-02-28T08:19:28.752Z, 40.30
2023-02-28T08:20:28.732Z, 40.27
2023-02-28T08:21:29.094Z, 40.22
2023-02-28T08:22:28.730Z, 40.17
2023-02-28T08:23:28.725Z, 40.09
2023-02-28T08:24:28.739Z, 40.03
2023-02-28T08:25:28.750Z, 40.01
2023-02-28T08:26:28.769Z, 39.99
2023-02-28T08:27:28.745Z, 39.92
2023-02-28T08:28:28.754Z, 39.91
2023-02-28T08:29:28.762Z, 39.91
2023-02-28T08:30:28.804Z, 39.89
2023-02-28T08:31:29.370Z, 39.86
2023-02-28T08:32:30.371Z, 39.82
2023-02-28T08:33:28.830Z, 39.75
2023-02-28T08:34:28.927Z, 39.71
2023-02-28T08:35:29.024Z, 39.70
2023-02-28T08:36:28.953Z, 39.69
2023-02-28T08:37:28.927Z, 39.61
2023-02-28T08:38:28.899Z, 39.58
2023-02-28T08:39:28.929Z, 39.52
2023-02-28T08:40:28.924Z, 39.52
2023-02-28T08:41:29.321Z, 39.51
2023-02-28T08:42:28.963Z, 39.44
2023-02-28T08:43:28.957Z, 39.38
2023-02-28T08:44:28.964Z, 39.43
2023-02-28T08:45:29.044Z, 39.33
2023-02-28T08:46:28.974Z, 39.40
2023-02-28T08:47:29.006Z, 39.38
2023-02-28T08:48:29.009Z, 39.33
2023-02-28T08:49:29.019Z, 39.28
2023-02-28T08:50:29.069Z, 39.34
2023-02-28T08:51:29.302Z, 39.34
2023-02-28T08:52:29.022Z, 39.29
2023-02-28T08:53:29.014Z, 39.27
2023-02-28T08:54:29.070Z, 39.22
2023-02-28T08:55:29.076Z, 39.19
2023-02-28T08:56:29.069Z, 39.22
2023-02-28T08:57:29.075Z, 39.19
2023-02-28T08:58:29.118Z, 39.09
2023-02-28T08:59:29.124Z, 39.05
2023-02-28T09:00:29.104Z, 38.99
2023-02-28T09:01:29.537Z, 39.06
2023-02-28T09:02:29.090Z, 39.00
2023-02-28T09:03:29.135Z, 39.00
2023-02-28T09:04:29.156Z, 38.96
2023-02-28T09:05:29.176Z, 38.91
2023-02-28T09:06:29.526Z, 38.87
2023-02-28T09:07:29.165Z, 38.83
2023-02-28T09:08:29.201Z, 38.82
2023-02-28T09:09:29.204Z, 38.80
2023-02-28T09:10:29.219Z, 38.79
2023-02-28T09:11:29.168Z, 38.75
2023-02-28T09:12:29.184Z, 38.75
2023-02-28T09:13:29.187Z, 38.70
2023-02-28T09:14:29.190Z, 38.64
2023-02-28T09:15:29.254Z, 38.64
2023-02-28T09:16:29.280Z, 38.64
2023-02-28T09:17:30.733Z, 38.63
2023-02-28T09:18:29.304Z, 38.54
2023-02-28T09:19:29.271Z, 38.51
2023-02-28T09:20:29.284Z, 38.52
2023-02-28T09:21:29.672Z, 38.45
2023-02-28T09:22:29.295Z, 38.41
2023-02-28T09:23:29.337Z, 38.43
2023-02-28T09:24:29.353Z, 38.44
2023-02-28T09:25:29.354Z, 38.41
2023-02-28T09:26:35.058Z, 38.35
2023-02-28T09:27:29.378Z, 38.34
2023-02-28T09:28:29.381Z, 38.35
2023-02-28T09:29:29.391Z, 38.38
2023-02-28T09:30:29.425Z, 38.35
2023-02-28T09:31:29.389Z, 38.33
2023-02-28T09:32:29.503Z, 38.30
2023-02-28T09:33:29.422Z, 38.32
2023-02-28T09:34:29.532Z, 38.27
2023-02-28T09:35:30.149Z, 38.24
2023-02-28T09:36:43.236Z, 38.19
2023-02-28T09:37:29.447Z, 38.16
2023-02-28T09:38:29.457Z, 38.15
2023-02-28T09:39:29.473Z, 38.13
2023-02-28T09:40:29.489Z, 38.16
2023-02-28T09:41:29.476Z, 38.12
2023-02-28T09:42:29.474Z, 38.10
2023-02-28T09:43:29.544Z, 38.08
2023-02-28T09:44:29.591Z, 38.04
2023-02-28T09:45:29.577Z, 38.00
2023-02-28T09:46:29.702Z, 37.99
2023-02-28T09:47:29.596Z, 37.94
2023-02-28T09:48:29.575Z, 37.98
2023-02-28T09:49:29.640Z, 37.87
2023-02-28T09:50:29.609Z, 37.86
2023-02-28T09:51:29.873Z, 37.87
2023-02-28T09:52:29.672Z, 37.84
2023-02-28T09:53:29.633Z, 37.82
2023-02-28T09:54:29.645Z, 37.84
2023-02-28T09:55:32.712Z, 37.81
2023-02-28T09:56:30.014Z, 37.78
2023-02-28T09:57:29.665Z, 37.72
2023-02-28T09:58:29.669Z, 37.68
2023-02-28T09:59:29.749Z, 37.69
2023-02-28T10:00:29.716Z, 37.68
2023-02-28T10:01:30.268Z, 37.69
2023-02-28T10:02:29.733Z, 37.71
2023-02-28T10:03:29.744Z, 37.76
2023-02-28T10:04:29.738Z, 37.71
2023-02-28T10:05:29.793Z, 37.63
2023-02-28T10:06:29.804Z, 37.62
2023-02-28T10:07:29.806Z, 37.55
2023-02-28T10:08:29.839Z, 37.55
2023-02-28T10:09:29.839Z, 37.57
2023-02-28T10:10:29.825Z, 37.51
2023-02-28T10:11:30.109Z, 37.55
2023-02-28T10:12:29.854Z, 37.49
2023-02-28T10:13:29.873Z, 37.44
2023-02-28T10:14:29.859Z, 37.44
2023-02-28T10:15:29.856Z, 37.44
2023-02-28T10:16:30.209Z, 37.48
2023-02-28T10:17:29.869Z, 37.40
2023-02-28T10:18:29.869Z, 37.40
2023-02-28T10:19:29.860Z, 37.34
2023-02-28T10:20:29.872Z, 37.34
2023-02-28T10:21:29.881Z, 37.28
2023-02-28T10:22:30.003Z, 37.27
2023-02-28T10:23:29.970Z, 37.29
2023-02-28T10:24:30.010Z, 37.29
2023-02-28T10:25:29.997Z, 37.21
2023-02-28T10:26:30.338Z, 37.29
2023-02-28T10:27:30.012Z, 37.25
2023-02-28T10:28:29.963Z, 37.24
2023-02-28T10:29:29.967Z, 37.21
2023-02-28T10:30:30.051Z, 37.18
2023-02-28T10:31:30.066Z, 37.12
2023-02-28T10:32:30.053Z, 37.18
2023-02-28T10:33:30.099Z, 37.10
2023-02-28T10:34:30.021Z, 37.05
2023-02-28T10:35:30.053Z, 37.07
2023-02-28T10:36:30.417Z, 37.05
2023-02-28T10:37:30.030Z, 37.01
2023-02-28T10:38:30.112Z, 37.05
2023-02-28T10:39:30.102Z, 37.07
2023-02-28T10:40:30.133Z, 36.97
2023-02-28T10:41:30.109Z, 36.94
2023-02-28T10:42:30.138Z, 36.98
2023-02-28T10:43:30.115Z, 36.96
2023-02-28T10:44:30.149Z, 36.95
2023-02-28T10:45:30.148Z, 36.96
2023-02-28T10:46:30.534Z, 36.87
2023-02-28T10:47:30.132Z, 36.87
2023-02-28T10:48:30.144Z, 36.86
2023-02-28T10:49:30.219Z, 36.86
2023-02-28T10:50:30.202Z, 36.89
2023-02-28T10:51:30.194Z, 36.82
2023-02-28T10:52:30.183Z, 36.79
2023-02-28T10:53:30.183Z, 36.81
2023-02-28T10:54:30.193Z, 36.79
2023-02-28T10:55:30.193Z, 36.70
2023-02-28T10:56:30.832Z, 36.66
2023-02-28T10:57:30.282Z, 36.67
2023-02-28T10:58:30.299Z, 36.71
2023-02-28T10:59:30.290Z, 36.72
2023-02-28T11:00:30.268Z, 36.75
2023-02-28T11:01:30.645Z, 37.22
2023-02-28T11:02:30.286Z, 38.27
2023-02-28T11:03:30.300Z, 43.18
2023-02-28T11:04:30.449Z, 49.75
2023-02-28T11:05:30.277Z, 51.47
2023-02-28T11:06:30.607Z, 49.43
2023-02-28T11:07:37.393Z, 47.27
2023-02-28T11:08:30.325Z, 45.10
2023-02-28T11:09:30.359Z, 43.40
2023-02-28T11:10:30.388Z, 41.41
2023-02-28T11:11:30.632Z, 39.53
2023-02-28T11:12:31.308Z, 38.30
2023-02-28T11:13:30.371Z, 37.50
2023-02-28T11:14:30.362Z, 37.05
2023-02-28T11:15:30.360Z, 36.69
2023-02-28T11:16:30.425Z, 36.29
2023-02-28T11:17:30.419Z, 36.24
2023-02-28T11:18:30.460Z, 40.88
2023-02-28T11:19:30.441Z, 46.79
2023-02-28T11:20:30.406Z, 50.66
2023-02-28T11:21:30.870Z, 51.19
2023-02-28T11:22:30.415Z, 49.61
2023-02-28T11:23:30.420Z, 47.63
2023-02-28T11:24:30.526Z, 45.88
2023-02-28T11:25:30.733Z, 44.36
2023-02-28T11:26:30.467Z, 42.94
2023-02-28T11:27:30.472Z, 41.66
2023-02-28T11:28:30.477Z, 40.38
2023-02-28T11:29:30.464Z, 38.92
2023-02-28T11:30:30.498Z, 37.44
2023-02-28T11:31:30.836Z, 36.85
2023-02-28T11:32:30.576Z, 36.67
2023-02-28T11:33:30.528Z, 36.56
2023-02-28T11:34:30.516Z, 36.47
2023-02-28T11:35:30.582Z, 36.73
2023-02-28T11:36:30.578Z, 36.85
2023-02-28T11:37:30.578Z, 36.87
2023-02-28T11:38:30.568Z, 36.87
2023-02-28T11:39:30.576Z, 36.86
2023-02-28T11:40:30.573Z, 36.82
2023-02-28T11:41:30.945Z, 36.76
2023-02-28T11:42:30.614Z, 36.71
2023-02-28T11:43:30.582Z, 36.63
2023-02-28T11:44:30.585Z, 36.55
2023-02-28T11:45:30.586Z, 36.45
2023-02-28T11:46:30.637Z, 36.37
2023-02-28T11:47:30.583Z, 36.25
2023-02-28T11:48:30.583Z, 36.16
2023-02-28T11:49:30.597Z, 36.06
2023-02-28T11:50:30.661Z, 35.97
2023-02-28T11:51:30.961Z, 35.86
2023-02-28T11:52:30.646Z, 35.75
2023-02-28T11:53:30.677Z, 35.69
2023-02-28T11:54:30.682Z, 35.58
2023-02-28T11:55:30.741Z, 35.45
2023-02-28T11:56:30.690Z, 35.38
2023-02-28T11:57:30.789Z, 35.28
2023-02-28T11:58:30.721Z, 35.17
2023-02-28T11:59:30.782Z, 35.09
2023-02-28T12:00:30.795Z, 34.98
2023-02-28T12:01:31.237Z, 34.89
2023-02-28T12:02:30.842Z, 34.80
2023-02-28T12:03:30.830Z, 34.72
2023-02-28T12:04:30.761Z, 34.62
2023-02-28T12:05:30.769Z, 34.56
2023-02-28T12:06:30.819Z, 34.46
2023-02-28T12:07:30.800Z, 34.36
2023-02-28T12:08:30.821Z, 34.28
2023-02-28T12:09:30.895Z, 34.21
2023-02-28T12:10:30.921Z, 34.16
2023-02-28T12:11:31.163Z, 34.12
2023-02-28T12:12:30.898Z, 34.05
2023-02-28T12:13:30.942Z, 33.96
2023-02-28T12:14:30.962Z, 33.89
2023-02-28T12:15:30.932Z, 33.82
2023-02-28T12:16:31.017Z, 33.74
2023-02-28T12:17:30.950Z, 33.68
2023-02-28T12:18:30.949Z, 33.60
2023-02-28T12:19:30.934Z, 33.52
2023-02-28T12:20:30.979Z, 33.49
2023-02-28T12:21:31.391Z, 33.45
2023-02-28T12:22:31.024Z, 33.35
2023-02-28T12:23:30.981Z, 33.28
2023-02-28T12:24:31.022Z, 33.23
2023-02-28T12:25:31.013Z, 33.18
2023-02-28T12:26:30.996Z, 33.10
2023-02-28T12:27:30.999Z, 33.05
2023-02-28T12:28:31.000Z, 32.98